sensor_id;sensor_type;location;lat;lon;timestamp;temperature;humidity
2657;DHT22;1338;48.176;11.792;2023-03-05T00:01:27;-0.40;99.90
2657;DHT22;1338;48.176;11.792;2023-03-05T00:03:56;-0.40;99.90
2657;DHT22;1338;48.176;11.792;2023-03-05T00:06:27;-0.40;99.90
2657;DHT22;1338;48.176;11.792;2023-03-05T00:08:56;-0.20;99.90
2657;DHT22;1338;48.176;11.792;2023-03-05T00:11:26;-0.30;99.90
2657;DHT22;1338;48.176;11.792;2023-03-05T00:13:56;-0.30;99.90
2657;DHT22;1338;48.176;11.792;2023-03-05T00:16:25;-0.40;99.90
2657;DHT22;1338;48.176;11.792;2023-03-05T00:18:55;-0.40;99.90
2657;DHT22;1338;48.176;11.792;2023-03-05T00:21:25;-0.40;99.90
2657;DHT22;1338;48.176;11.792;2023-03-05T00:23:55;-0.40;99.90
2657;DHT22;1338;48.176;11.792;2023-03-05T00:26:25;-0.40;99.90
2657;DHT22;1338;48.176;11.792;2023-03-05T00:28:54;-0.40;99.90
2657;DHT22;1338;48.176;11.792;2023-03-05T00:31:24;-0.40;99.90
2657;DHT22;1338;48.176;11.792;2023-03-05T00:33:57;-0.40;99.90
2657;DHT22;1338;48.176;11.792;2023-03-05T00:36:26;-0.30;99.90
2657;DHT22;1338;48.176;11.792;2023-03-05T00:38:56;-0.30;99.90
2657;DHT22;1338;48.176;11.792;2023-03-05T00:41:24;-0.40;99.90
2657;DHT22;1338;48.176;11.792;2023-03-05T00:43:53;-0.40;99.90
2657;DHT22;1338;48.176;11.792;2023-03-05T00:46:21;-0.40;99.90
2657;DHT22;1338;48.176;11.792;2023-03-05T00:48:50;-0.40;99.90
2657;DHT22;1338;48.176;11.792;2023-03-05T00:51:18;-0.50;99.90
2657;DHT22;1338;48.176;11.792;2023-03-05T00:53:46;-0.50;99.90
2657;DHT22;1338;48.176;11.792;2023-03-05T00:56:16;-0.50;99.90
2657;DHT22;1338;48.176;11.792;2023-03-05T00:58:44;-0.60;99.90
2657;DHT22;1338;48.176;11.792;2023-03-05T01:01:13;-0.50;99.90
2657;DHT22;1338;48.176;11.792;2023-03-05T01:03:41;-0.60;99.90
2657;DHT22;1338;48.176;11.792;2023-03-05T01:06:11;-0.60;99.90
2657;DHT22;1338;48.176;11.792;2023-03-05T01:08:40;-0.60;99.90
2657;DHT22;1338;48.176;11.792;2023-03-05T01:11:09;-0.50;99.90
2657;DHT22;1338;48.176;11.792;2023-03-05T01:13:39;-0.50;99.90
2657;DHT22;1338;48.176;11.792;2023-03-05T01:16:07;-0.40;99.90
2657;DHT22;1338;48.176;11.792;2023-03-05T01:18:37;-0.40;99.90
2657;DHT22;1338;48.176;11.792;2023-03-05T01:21:05;-0.50;99.90
2657;DHT22;1338;48.176;11.792;2023-03-05T01:23:34;-0.40;99.90
2657;DHT22;1338;48.176;11.792;2023-03-05T01:26:04;-0.50;99.90
2657;DHT22;1338;48.176;11.792;2023-03-05T01:28:32;-0.40;99.90
2657;DHT22;1338;48.176;11.792;2023-03-05T01:31:01;-0.40;99.90
2657;DHT22;1338;48.176;11.792;2023-03-05T01:33:33;-0.40;99.90
2657;DHT22;1338;48.176;11.792;2023-03-05T01:36:01;-0.40;99.90
2657;DHT22;1338;48.176;11.792;2023-03-05T01:38:29;-0.40;99.90
2657;DHT22;1338;48.176;11.792;2023-03-05T01:40:57;-0.40;99.90
2657;DHT22;1338;48.176;11.792;2023-03-05T01:43:26;-0.40;99.90
2657;DHT22;1338;48.176;11.792;2023-03-05T01:46:28;-0.40;99.90
2657;DHT22;1338;48.176;11.792;2023-03-05T01:49:08;-0.40;99.90
2657;DHT22;1338;48.176;11.792;2023-03-05T01:51:39;-0.30;99.90
2657;DHT22;1338;48.176;11.792;2023-03-05T01:54:11;-0.40;99.90
2657;DHT22;1338;48.176;11.792;2023-03-05T01:56:41;-0.30;99.90
2657;DHT22;1338;48.176;11.792;2023-03-05T01:59:11;-0.30;99.90
2657;DHT22;1338;48.176;11.792;2023-03-05T02:01:45;-0.30;99.90
2657;DHT22;1338;48.176;11.792;2023-03-05T02:04:16;-0.30;99.90
2657;DHT22;1338;48.176;11.792;2023-03-05T02:06:45;-0.20;99.90
2657;DHT22;1338;48.176;11.792;2023-03-05T02:09:14;-0.20;99.90
2657;DHT22;1338;48.176;11.792;2023-03-05T02:11:42;-0.30;99.90
2657;DHT22;1338;48.176;11.792;2023-03-05T02:14:10;-0.30;99.90
2657;DHT22;1338;48.176;11.792;2023-03-05T02:16:38;-0.30;99.90
2657;DHT22;1338;48.176;11.792;2023-03-05T02:19:10;-0.30;99.90
2657;DHT22;1338;48.176;11.792;2023-03-05T02:21:41;-0.30;99.90
2657;DHT22;1338;48.176;11.792;2023-03-05T02:24:13;-0.20;99.90
2657;DHT22;1338;48.176;11.792;2023-03-05T02:26:42;-0.20;99.90
2657;DHT22;1338;48.176;11.792;2023-03-05T02:29:14;-0.20;99.90
2657;DHT22;1338;48.176;11.792;2023-03-05T02:31:45;-0.20;99.90
2657;DHT22;1338;48.176;11.792;2023-03-05T02:34:13;-0.20;99.90
2657;DHT22;1338;48.176;11.792;2023-03-05T02:36:42;-0.20;99.90
2657;DHT22;1338;48.176;11.792;2023-03-05T02:39:11;-0.20;99.90
2657;DHT22;1338;48.176;11.792;2023-03-05T02:41:39;-0.20;99.90
2657;DHT22;1338;48.176;11.792;2023-03-05T02:44:07;-0.10;99.90
2657;DHT22;1338;48.176;11.792;2023-03-05T02:46:35;-0.20;99.90
2657;DHT22;1338;48.176;11.792;2023-03-05T02:49:03;-0.10;99.90
2657;DHT22;1338;48.176;11.792;2023-03-05T02:51:32;-0.10;99.90
2657;DHT22;1338;48.176;11.792;2023-03-05T02:54:01;-0.10;99.90
2657;DHT22;1338;48.176;11.792;2023-03-05T02:56:30;-0.10;99.90
2657;DHT22;1338;48.176;11.792;2023-03-05T02:58:59;-0.10;99.90
2657;DHT22;1338;48.176;11.792;2023-03-05T03:01:27;-0.10;99.90
2657;DHT22;1338;48.176;11.792;2023-03-05T03:03:56;-0.10;99.90
2657;DHT22;1338;48.176;11.792;2023-03-05T03:06:25;0.00;99.90
2657;DHT22;1338;48.176;11.792;2023-03-05T03:08:53;0.00;99.90
2657;DHT22;1338;48.176;11.792;2023-03-05T03:11:22;0.00;99.90
2657;DHT22;1338;48.176;11.792;2023-03-05T03:13:50;0.00;99.90
2657;DHT22;1338;48.176;11.792;2023-03-05T03:16:18;0.00;99.90
2657;DHT22;1338;48.176;11.792;2023-03-05T03:18:47;0.00;99.90
2657;DHT22;1338;48.176;11.792;2023-03-05T03:21:19;0.00;99.90
2657;DHT22;1338;48.176;11.792;2023-03-05T03:23:49;0.00;99.90
2657;DHT22;1338;48.176;11.792;2023-03-05T03:26:17;0.00;99.90
2657;DHT22;1338;48.176;11.792;2023-03-05T03:28:47;0.10;99.90
2657;DHT22;1338;48.176;11.792;2023-03-05T03:31:15;0.00;99.90
2657;DHT22;1338;48.176;11.792;2023-03-05T03:33:44;0.00;99.90
2657;DHT22;1338;48.176;11.792;2023-03-05T03:36:13;0.10;99.90
2657;DHT22;1338;48.176;11.792;2023-03-05T03:38:41;0.10;99.90
2657;DHT22;1338;48.176;11.792;2023-03-05T03:41:09;0.10;99.90
2657;DHT22;1338;48.176;11.792;2023-03-05T03:43:37;0.10;99.90
2657;DHT22;1338;48.176;11.792;2023-03-05T03:46:07;0.10;99.90
2657;DHT22;1338;48.176;11.792;2023-03-05T03:48:35;0.10;99.90
2657;DHT22;1338;48.176;11.792;2023-03-05T03:51:04;0.20;99.90
2657;DHT22;1338;48.176;11.792;2023-03-05T03:53:33;0.20;99.90
2657;DHT22;1338;48.176;11.792;2023-03-05T03:56:01;0.20;99.90
2657;DHT22;1338;48.176;11.792;2023-03-05T03:58:30;0.20;99.90
2657;DHT22;1338;48.176;11.792;2023-03-05T04:00:58;0.20;99.90
2657;DHT22;1338;48.176;11.792;2023-03-05T04:03:27;0.20;99.90
2657;DHT22;1338;48.176;11.792;2023-03-05T04:05:56;0.30;99.90
2657;DHT22;1338;48.176;11.792;2023-03-05T04:08:24;0.30;99.90
2657;DHT22;1338;48.176;11.792;2023-03-05T04:10:52;0.30;99.90
2657;DHT22;1338;48.176;11.792;2023-03-05T04:13:20;0.30;99.90
2657;DHT22;1338;48.176;11.792;2023-03-05T04:15:48;0.30;99.90
2657;DHT22;1338;48.176;11.792;2023-03-05T04:18:16;0.30;99.90
2657;DHT22;1338;48.176;11.792;2023-03-05T04:20:45;0.40;99.90
2657;DHT22;1338;48.176;11.792;2023-03-05T04:23:14;0.30;99.90
2657;DHT22;1338;48.176;11.792;2023-03-05T04:25:42;0.30;99.90
2657;DHT22;1338;48.176;11.792;2023-03-05T04:28:10;0.30;99.90
2657;DHT22;1338;48.176;11.792;2023-03-05T04:30:38;0.30;99.90
2657;DHT22;1338;48.176;11.792;2023-03-05T04:33:06;0.30;99.90
2657;DHT22;1338;48.176;11.792;2023-03-05T04:35:35;0.30;99.90
2657;DHT22;1338;48.176;11.792;2023-03-05T04:38:04;0.30;99.90
2657;DHT22;1338;48.176;11.792;2023-03-05T04:40:33;0.40;99.90
2657;DHT22;1338;48.176;11.792;2023-03-05T04:43:01;0.30;99.90
2657;DHT22;1338;48.176;11.792;2023-03-05T04:45:29;0.40;99.90
2657;DHT22;1338;48.176;11.792;2023-03-05T04:47:57;0.40;99.90
2657;DHT22;1338;48.176;11.792;2023-03-05T04:50:26;0.40;99.90
2657;DHT22;1338;48.176;11.792;2023-03-05T04:52:54;0.40;99.90
2657;DHT22;1338;48.176;11.792;2023-03-05T04:55:23;0.40;99.90
2657;DHT22;1338;48.176;11.792;2023-03-05T04:57:51;0.40;99.90
2657;DHT22;1338;48.176;11.792;2023-03-05T05:00:20;0.40;99.90
2657;DHT22;1338;48.176;11.792;2023-03-05T05:02:50;0.40;99.90
2657;DHT22;1338;48.176;11.792;2023-03-05T05:05:21;0.40;99.90
2657;DHT22;1338;48.176;11.792;2023-03-05T05:07:52;0.40;99.90
2657;DHT22;1338;48.176;11.792;2023-03-05T05:10:20;0.40;99.90
2657;DHT22;1338;48.176;11.792;2023-03-05T05:12:50;0.40;99.90
2657;DHT22;1338;48.176;11.792;2023-03-05T05:15:18;0.40;99.90
2657;DHT22;1338;48.176;11.792;2023-03-05T05:17:46;0.40;99.90
2657;DHT22;1338;48.176;11.792;2023-03-05T05:20:15;0.50;99.90
2657;DHT22;1338;48.176;11.792;2023-03-05T05:22:44;0.40;99.90
2657;DHT22;1338;48.176;11.792;2023-03-05T05:25:12;0.40;99.90
2657;DHT22;1338;48.176;11.792;2023-03-05T05:27:40;0.50;99.90
2657;DHT22;1338;48.176;11.792;2023-03-05T05:30:11;0.50;99.90
2657;DHT22;1338;48.176;11.792;2023-03-05T05:32:39;0.50;99.90
2657;DHT22;1338;48.176;11.792;2023-03-05T05:35:08;0.50;99.90
2657;DHT22;1338;48.176;11.792;2023-03-05T05:37:36;0.50;99.90
2657;DHT22;1338;48.176;11.792;2023-03-05T05:40:06;0.50;99.90
2657;DHT22;1338;48.176;11.792;2023-03-05T05:42:34;0.50;99.90
2657;DHT22;1338;48.176;11.792;2023-03-05T05:45:03;0.50;99.90
2657;DHT22;1338;48.176;11.792;2023-03-05T05:47:33;0.60;99.90
2657;DHT22;1338;48.176;11.792;2023-03-05T05:50:01;0.60;99.90
2657;DHT22;1338;48.176;11.792;2023-03-05T05:52:29;0.70;99.90
2657;DHT22;1338;48.176;11.792;2023-03-05T05:54:57;0.70;99.90
2657;DHT22;1338;48.176;11.792;2023-03-05T05:57:25;0.70;99.90
2657;DHT22;1338;48.176;11.792;2023-03-05T05:59:53;0.70;99.90
2657;DHT22;1338;48.176;11.792;2023-03-05T06:02:21;0.70;99.90
2657;DHT22;1338;48.176;11.792;2023-03-05T06:04:51;0.70;99.90
2657;DHT22;1338;48.176;11.792;2023-03-05T06:07:19;0.70;99.90
2657;DHT22;1338;48.176;11.792;2023-03-05T06:09:47;0.70;99.90
2657;DHT22;1338;48.176;11.792;2023-03-05T06:12:15;0.80;99.90
2657;DHT22;1338;48.176;11.792;2023-03-05T06:14:43;0.80;99.90
2657;DHT22;1338;48.176;11.792;2023-03-05T06:17:11;0.80;99.90
2657;DHT22;1338;48.176;11.792;2023-03-05T06:19:54;0.80;99.90
2657;DHT22;1338;48.176;11.792;2023-03-05T06:22:24;0.80;99.90
2657;DHT22;1338;48.176;11.792;2023-03-05T06:24:52;0.80;99.90
2657;DHT22;1338;48.176;11.792;2023-03-05T06:27:20;0.80;99.90
2657;DHT22;1338;48.176;11.792;2023-03-05T06:29:51;0.80;99.90
2657;DHT22;1338;48.176;11.792;2023-03-05T06:32:20;0.90;99.90
2657;DHT22;1338;48.176;11.792;2023-03-05T06:34:49;0.80;99.90
2657;DHT22;1338;48.176;11.792;2023-03-05T06:37:18;0.80;99.90
2657;DHT22;1338;48.176;11.792;2023-03-05T06:39:46;0.90;99.90
2657;DHT22;1338;48.176;11.792;2023-03-05T06:42:14;0.80;99.90
2657;DHT22;1338;48.176;11.792;2023-03-05T06:44:43;0.80;99.90
2657;DHT22;1338;48.176;11.792;2023-03-05T06:47:14;0.90;99.90
2657;DHT22;1338;48.176;11.792;2023-03-05T06:49:43;0.80;99.90
2657;DHT22;1338;48.176;11.792;2023-03-05T06:52:11;0.80;99.90
2657;DHT22;1338;48.176;11.792;2023-03-05T06:54:40;0.90;99.90
2657;DHT22;1338;48.176;11.792;2023-03-05T06:57:09;0.90;99.90
2657;DHT22;1338;48.176;11.792;2023-03-05T06:59:37;0.90;99.90
2657;DHT22;1338;48.176;11.792;2023-03-05T07:02:07;0.90;99.90
2657;DHT22;1338;48.176;11.792;2023-03-05T07:04:36;0.90;99.90
2657;DHT22;1338;48.176;11.792;2023-03-05T07:07:05;0.90;99.90
2657;DHT22;1338;48.176;11.792;2023-03-05T07:09:33;0.90;99.90
2657;DHT22;1338;48.176;11.792;2023-03-05T07:12:02;0.90;99.90
2657;DHT22;1338;48.176;11.792;2023-03-05T07:14:30;0.90;99.90
2657;DHT22;1338;48.176;11.792;2023-03-05T07:16:58;0.80;99.90
2657;DHT22;1338;48.176;11.792;2023-03-05T07:19:26;0.80;99.90
2657;DHT22;1338;48.176;11.792;2023-03-05T07:21:54;0.80;99.90
2657;DHT22;1338;48.176;11.792;2023-03-05T07:24:22;0.90;99.90
2657;DHT22;1338;48.176;11.792;2023-03-05T07:26:56;0.90;99.90
2657;DHT22;1338;48.176;11.792;2023-03-05T07:29:26;0.90;99.90
2657;DHT22;1338;48.176;11.792;2023-03-05T07:31:55;0.90;99.90
2657;DHT22;1338;48.176;11.792;2023-03-05T07:34:23;0.90;99.90
2657;DHT22;1338;48.176;11.792;2023-03-05T07:36:53;0.90;99.90
2657;DHT22;1338;48.176;11.792;2023-03-05T07:39:21;1.00;99.90
2657;DHT22;1338;48.176;11.792;2023-03-05T07:41:49;1.00;99.90
2657;DHT22;1338;48.176;11.792;2023-03-05T07:44:27;1.00;99.90
2657;DHT22;1338;48.176;11.792;2023-03-05T07:46:56;1.00;99.90
2657;DHT22;1338;48.176;11.792;2023-03-05T07:49:24;1.00;99.90
2657;DHT22;1338;48.176;11.792;2023-03-05T07:51:52;1.10;99.90
2657;DHT22;1338;48.176;11.792;2023-03-05T07:54:20;1.10;99.90
2657;DHT22;1338;48.176;11.792;2023-03-05T07:56:48;1.10;99.90
2657;DHT22;1338;48.176;11.792;2023-03-05T07:59:16;1.20;99.90
2657;DHT22;1338;48.176;11.792;2023-03-05T08:01:45;1.20;99.90
2657;DHT22;1338;48.176;11.792;2023-03-05T08:04:14;1.20;99.90
2657;DHT22;1338;48.176;11.792;2023-03-05T08:06:42;1.30;99.90
2657;DHT22;1338;48.176;11.792;2023-03-05T08:09:12;1.30;99.90
2657;DHT22;1338;48.176;11.792;2023-03-05T08:11:40;1.40;99.90
2657;DHT22;1338;48.176;11.792;2023-03-05T08:14:09;1.40;99.90
2657;DHT22;1338;48.176;11.792;2023-03-05T08:16:39;1.30;99.90
2657;DHT22;1338;48.176;11.792;2023-03-05T08:19:09;1.30;99.90
2657;DHT22;1338;48.176;11.792;2023-03-05T08:21:37;1.30;99.90
2657;DHT22;1338;48.176;11.792;2023-03-05T08:24:07;1.50;99.90
2657;DHT22;1338;48.176;11.792;2023-03-05T08:26:36;1.40;99.90
2657;DHT22;1338;48.176;11.792;2023-03-05T08:29:05;1.40;99.90
2657;DHT22;1338;48.176;11.792;2023-03-05T08:31:34;1.40;99.90
2657;DHT22;1338;48.176;11.792;2023-03-05T08:34:03;1.30;99.90
2657;DHT22;1338;48.176;11.792;2023-03-05T08:36:33;1.50;99.90
2657;DHT22;1338;48.176;11.792;2023-03-05T08:39:01;1.60;99.90
2657;DHT22;1338;48.176;11.792;2023-03-05T08:41:29;1.60;99.90
2657;DHT22;1338;48.176;11.792;2023-03-05T08:43:57;1.60;99.90
2657;DHT22;1338;48.176;11.792;2023-03-05T08:46:25;1.60;99.90
2657;DHT22;1338;48.176;11.792;2023-03-05T08:48:53;1.60;99.90
2657;DHT22;1338;48.176;11.792;2023-03-05T08:51:23;1.60;99.90
2657;DHT22;1338;48.176;11.792;2023-03-05T08:53:56;1.70;99.90
2657;DHT22;1338;48.176;11.792;2023-03-05T08:56:24;1.80;99.90
2657;DHT22;1338;48.176;11.792;2023-03-05T08:58:54;1.80;99.90
2657;DHT22;1338;48.176;11.792;2023-03-05T09:01:22;1.90;99.90
2657;DHT22;1338;48.176;11.792;2023-03-05T09:03:50;1.80;99.90
2657;DHT22;1338;48.176;11.792;2023-03-05T09:06:18;1.70;99.90
2657;DHT22;1338;48.176;11.792;2023-03-05T09:08:46;1.80;99.90
2657;DHT22;1338;48.176;11.792;2023-03-05T09:11:16;1.80;99.90
2657;DHT22;1338;48.176;11.792;2023-03-05T09:13:44;1.90;99.90
2657;DHT22;1338;48.176;11.792;2023-03-05T09:16:14;1.80;99.90
2657;DHT22;1338;48.176;11.792;2023-03-05T09:18:43;1.90;99.90
2657;DHT22;1338;48.176;11.792;2023-03-05T09:21:13;2.00;99.90
2657;DHT22;1338;48.176;11.792;2023-03-05T09:23:42;1.90;99.90
2657;DHT22;1338;48.176;11.792;2023-03-05T09:26:11;2.10;99.90
2657;DHT22;1338;48.176;11.792;2023-03-05T09:28:42;1.90;99.90
2657;DHT22;1338;48.176;11.792;2023-03-05T09:31:10;1.90;99.90
2657;DHT22;1338;48.176;11.792;2023-03-05T09:33:39;2.00;99.90
2657;DHT22;1338;48.176;11.792;2023-03-05T09:36:16;2.10;99.90
2657;DHT22;1338;48.176;11.792;2023-03-05T09:38:45;2.20;99.90
2657;DHT22;1338;48.176;11.792;2023-03-05T09:41:17;2.10;99.90
2657;DHT22;1338;48.176;11.792;2023-03-05T09:43:55;2.20;99.90
2657;DHT22;1338;48.176;11.792;2023-03-05T09:46:33;2.30;99.90
2657;DHT22;1338;48.176;11.792;2023-03-05T09:49:12;2.40;99.90
2657;DHT22;1338;48.176;11.792;2023-03-05T09:51:42;2.40;99.90
2657;DHT22;1338;48.176;11.792;2023-03-05T09:54:15;2.10;99.90
2657;DHT22;1338;48.176;11.792;2023-03-05T09:56:46;2.00;99.90
2657;DHT22;1338;48.176;11.792;2023-03-05T09:59:25;2.00;99.90
2657;DHT22;1338;48.176;11.792;2023-03-05T10:01:56;2.10;99.90
2657;DHT22;1338;48.176;11.792;2023-03-05T10:04:32;2.00;99.90
2657;DHT22;1338;48.176;11.792;2023-03-05T10:07:11;2.20;99.90
2657;DHT22;1338;48.176;11.792;2023-03-05T10:09:44;2.20;99.90
2657;DHT22;1338;48.176;11.792;2023-03-05T10:12:19;2.20;99.90
2657;DHT22;1338;48.176;11.792;2023-03-05T10:14:53;2.20;99.90
2657;DHT22;1338;48.176;11.792;2023-03-05T10:20:58;2.30;99.90
2657;DHT22;1338;48.176;11.792;2023-03-05T10:23:32;2.60;99.90
2657;DHT22;1338;48.176;11.792;2023-03-05T10:26:10;2.30;99.90
2657;DHT22;1338;48.176;11.792;2023-03-05T10:28:47;2.20;99.90
2657;DHT22;1338;48.176;11.792;2023-03-05T10:31:33;2.30;99.90
2657;DHT22;1338;48.176;11.792;2023-03-05T10:37:05;2.40;99.90
2657;DHT22;1338;48.176;11.792;2023-03-05T10:39:48;2.30;99.90
2657;DHT22;1338;48.176;11.792;2023-03-05T10:42:27;2.30;99.90
2657;DHT22;1338;48.176;11.792;2023-03-05T10:44:58;2.40;99.90
2657;DHT22;1338;48.176;11.792;2023-03-05T10:47:33;2.50;99.90
2657;DHT22;1338;48.176;11.792;2023-03-05T10:50:14;2.40;99.90
2657;DHT22;1338;48.176;11.792;2023-03-05T10:52:45;2.50;99.90
2657;DHT22;1338;48.176;11.792;2023-03-05T10:55:18;2.50;99.90
2657;DHT22;1338;48.176;11.792;2023-03-05T10:57:47;2.60;99.90
2657;DHT22;1338;48.176;11.792;2023-03-05T11:00:20;2.30;99.90
2657;DHT22;1338;48.176;11.792;2023-03-05T11:02:55;2.40;99.90
2657;DHT22;1338;48.176;11.792;2023-03-05T11:05:39;2.60;99.90
2657;DHT22;1338;48.176;11.792;2023-03-05T11:08:32;2.50;99.90
2657;DHT22;1338;48.176;11.792;2023-03-05T11:11:18;2.60;99.90
2657;DHT22;1338;48.176;11.792;2023-03-05T11:13:53;2.60;99.90
2657;DHT22;1338;48.176;11.792;2023-03-05T11:16:23;2.50;99.90
2657;DHT22;1338;48.176;11.792;2023-03-05T11:19:16;2.60;99.90
2657;DHT22;1338;48.176;11.792;2023-03-05T11:21:46;2.50;99.90
2657;DHT22;1338;48.176;11.792;2023-03-05T11:24:16;2.50;99.90
2657;DHT22;1338;48.176;11.792;2023-03-05T11:26:47;2.60;99.90
2657;DHT22;1338;48.176;11.792;2023-03-05T11:29:20;2.50;99.90
2657;DHT22;1338;48.176;11.792;2023-03-05T11:31:49;2.50;99.90
2657;DHT22;1338;48.176;11.792;2023-03-05T11:34:26;2.60;99.90
2657;DHT22;1338;48.176;11.792;2023-03-05T11:37:02;2.50;99.90
2657;DHT22;1338;48.176;11.792;2023-03-05T11:39:33;2.50;99.90
2657;DHT22;1338;48.176;11.792;2023-03-05T11:42:06;2.50;99.90
2657;DHT22;1338;48.176;11.792;2023-03-05T11:44:45;2.80;99.90
2657;DHT22;1338;48.176;11.792;2023-03-05T11:47:22;2.70;99.90
2657;DHT22;1338;48.176;11.792;2023-03-05T11:50:01;2.60;99.90
2657;DHT22;1338;48.176;11.792;2023-03-05T11:52:37;2.70;99.90
2657;DHT22;1338;48.176;11.792;2023-03-05T11:55:13;2.80;99.90
2657;DHT22;1338;48.176;11.792;2023-03-05T11:57:45;2.80;99.90
2657;DHT22;1338;48.176;11.792;2023-03-05T12:00:18;2.60;99.90
2657;DHT22;1338;48.176;11.792;2023-03-05T12:02:52;2.70;99.90
2657;DHT22;1338;48.176;11.792;2023-03-05T12:05:22;2.60;99.90
2657;DHT22;1338;48.176;11.792;2023-03-05T12:07:55;2.60;99.90
2657;DHT22;1338;48.176;11.792;2023-03-05T12:10:25;2.80;99.90
2657;DHT22;1338;48.176;11.792;2023-03-05T12:12:57;2.70;99.90
2657;DHT22;1338;48.176;11.792;2023-03-05T12:15:35;2.80;99.90
2657;DHT22;1338;48.176;11.792;2023-03-05T12:18:19;2.80;99.90
2657;DHT22;1338;48.176;11.792;2023-03-05T12:20:59;2.90;99.90
2657;DHT22;1338;48.176;11.792;2023-03-05T12:23:43;2.90;99.90
2657;DHT22;1338;48.176;11.792;2023-03-05T12:26:12;3.00;99.90
2657;DHT22;1338;48.176;11.792;2023-03-05T12:28:55;2.80;99.90
2657;DHT22;1338;48.176;11.792;2023-03-05T12:31:41;2.90;99.90
2657;DHT22;1338;48.176;11.792;2023-03-05T12:34:34;3.00;99.90
2657;DHT22;1338;48.176;11.792;2023-03-05T12:37:07;2.80;99.90
2657;DHT22;1338;48.176;11.792;2023-03-05T12:39:48;2.90;99.90
2657;DHT22;1338;48.176;11.792;2023-03-05T12:42:53;2.80;99.90
2657;DHT22;1338;48.176;11.792;2023-03-05T12:45:34;2.90;99.90
2657;DHT22;1338;48.176;11.792;2023-03-05T12:48:42;2.90;99.90
2657;DHT22;1338;48.176;11.792;2023-03-05T12:51:26;3.10;99.90
2657;DHT22;1338;48.176;11.792;2023-03-05T12:56:45;2.90;99.90
2657;DHT22;1338;48.176;11.792;2023-03-05T12:59:14;2.90;99.90
2657;DHT22;1338;48.176;11.792;2023-03-05T13:01:46;2.80;99.90
2657;DHT22;1338;48.176;11.792;2023-03-05T13:04:21;3.00;99.90
2657;DHT22;1338;48.176;11.792;2023-03-05T13:06:58;2.80;99.90
2657;DHT22;1338;48.176;11.792;2023-03-05T13:09:29;2.80;99.90
2657;DHT22;1338;48.176;11.792;2023-03-05T13:11:59;2.80;99.90
2657;DHT22;1338;48.176;11.792;2023-03-05T13:14:32;2.90;99.90
2657;DHT22;1338;48.176;11.792;2023-03-05T13:17:19;3.10;99.90
2657;DHT22;1338;48.176;11.792;2023-03-05T13:19:51;3.00;99.90
2657;DHT22;1338;48.176;11.792;2023-03-05T13:22:19;3.00;99.90
2657;DHT22;1338;48.176;11.792;2023-03-05T13:25:15;3.00;99.90
2657;DHT22;1338;48.176;11.792;2023-03-05T13:27:46;3.00;99.90
2657;DHT22;1338;48.176;11.792;2023-03-05T13:30:22;3.00;99.90
2657;DHT22;1338;48.176;11.792;2023-03-05T13:32:51;3.00;99.90
2657;DHT22;1338;48.176;11.792;2023-03-05T13:35:21;3.10;99.90
2657;DHT22;1338;48.176;11.792;2023-03-05T13:37:50;3.20;99.90
2657;DHT22;1338;48.176;11.792;2023-03-05T13:40:23;3.10;99.90
2657;DHT22;1338;48.176;11.792;2023-03-05T13:42:52;3.10;99.90
2657;DHT22;1338;48.176;11.792;2023-03-05T13:45:25;3.30;99.90
2657;DHT22;1338;48.176;11.792;2023-03-05T13:47:56;3.30;99.90
2657;DHT22;1338;48.176;11.792;2023-03-05T13:50:27;3.30;99.90
2657;DHT22;1338;48.176;11.792;2023-03-05T13:52:55;3.30;99.90
2657;DHT22;1338;48.176;11.792;2023-03-05T13:55:42;3.00;99.90
2657;DHT22;1338;48.176;11.792;2023-03-05T13:58:44;3.20;99.90
2657;DHT22;1338;48.176;11.792;2023-03-05T14:01:26;3.10;99.90
2657;DHT22;1338;48.176;11.792;2023-03-05T14:03:56;3.30;99.90
2657;DHT22;1338;48.176;11.792;2023-03-05T14:06:28;3.40;99.90
2657;DHT22;1338;48.176;11.792;2023-03-05T14:09:04;3.10;99.90
2657;DHT22;1338;48.176;11.792;2023-03-05T14:11:34;3.60;99.90
2657;DHT22;1338;48.176;11.792;2023-03-05T14:14:12;3.50;99.90
2657;DHT22;1338;48.176;11.792;2023-03-05T14:16:42;3.30;99.90
2657;DHT22;1338;48.176;11.792;2023-03-05T14:19:33;3.50;99.90
2657;DHT22;1338;48.176;11.792;2023-03-05T14:22:02;3.40;99.90
2657;DHT22;1338;48.176;11.792;2023-03-05T14:24:31;3.30;99.90
2657;DHT22;1338;48.176;11.792;2023-03-05T14:27:05;3.40;99.90
2657;DHT22;1338;48.176;11.792;2023-03-05T14:29:44;3.30;99.90
2657;DHT22;1338;48.176;11.792;2023-03-05T14:32:21;3.30;99.90
2657;DHT22;1338;48.176;11.792;2023-03-05T14:34:56;3.30;99.90
2657;DHT22;1338;48.176;11.792;2023-03-05T14:37:28;3.30;99.90
2657;DHT22;1338;48.176;11.792;2023-03-05T14:39:59;3.10;99.90
2657;DHT22;1338;48.176;11.792;2023-03-05T14:42:33;3.00;99.90
2657;DHT22;1338;48.176;11.792;2023-03-05T14:45:16;2.80;99.90
2657;DHT22;1338;48.176;11.792;2023-03-05T14:47:45;2.90;99.90
2657;DHT22;1338;48.176;11.792;2023-03-05T14:50:15;3.00;99.90
2657;DHT22;1338;48.176;11.792;2023-03-05T14:52:44;2.90;99.90
2657;DHT22;1338;48.176;11.792;2023-03-05T14:55:17;2.80;99.90
2657;DHT22;1338;48.176;11.792;2023-03-05T14:57:47;2.80;99.90
2657;DHT22;1338;48.176;11.792;2023-03-05T15:00:19;2.90;99.90
2657;DHT22;1338;48.176;11.792;2023-03-05T15:02:48;2.80;99.90
2657;DHT22;1338;48.176;11.792;2023-03-05T15:05:17;2.80;99.90
2657;DHT22;1338;48.176;11.792;2023-03-05T15:07:46;2.90;99.90
2657;DHT22;1338;48.176;11.792;2023-03-05T15:10:16;2.80;99.90
2657;DHT22;1338;48.176;11.792;2023-03-05T15:12:45;2.80;99.90
2657;DHT22;1338;48.176;11.792;2023-03-05T15:15:16;2.80;99.90
2657;DHT22;1338;48.176;11.792;2023-03-05T15:17:47;2.80;99.90
2657;DHT22;1338;48.176;11.792;2023-03-05T15:20:19;3.00;99.90
2657;DHT22;1338;48.176;11.792;2023-03-05T15:22:48;3.00;99.90
2657;DHT22;1338;48.176;11.792;2023-03-05T15:25:19;2.90;99.90
2657;DHT22;1338;48.176;11.792;2023-03-05T15:27:48;2.80;99.90
2657;DHT22;1338;48.176;11.792;2023-03-05T15:30:21;2.80;99.90
2657;DHT22;1338;48.176;11.792;2023-03-05T15:32:51;2.80;99.90
2657;DHT22;1338;48.176;11.792;2023-03-05T15:35:20;2.70;99.90
2657;DHT22;1338;48.176;11.792;2023-03-05T15:37:48;2.60;99.90
2657;DHT22;1338;48.176;11.792;2023-03-05T15:40:19;2.60;99.90
2657;DHT22;1338;48.176;11.792;2023-03-05T15:42:48;2.60;99.90
2657;DHT22;1338;48.176;11.792;2023-03-05T15:45:18;2.60;99.90
2657;DHT22;1338;48.176;11.792;2023-03-05T15:47:47;2.60;99.90
2657;DHT22;1338;48.176;11.792;2023-03-05T15:50:17;2.60;99.90
2657;DHT22;1338;48.176;11.792;2023-03-05T15:52:46;2.50;99.90
2657;DHT22;1338;48.176;11.792;2023-03-05T15:55:14;2.60;99.90
2657;DHT22;1338;48.176;11.792;2023-03-05T15:57:45;2.60;99.90
2657;DHT22;1338;48.176;11.792;2023-03-05T16:00:19;2.60;99.90
2657;DHT22;1338;48.176;11.792;2023-03-05T16:02:51;2.50;99.90
2657;DHT22;1338;48.176;11.792;2023-03-05T16:05:19;2.50;99.90
2657;DHT22;1338;48.176;11.792;2023-03-05T16:07:49;2.40;99.90
2657;DHT22;1338;48.176;11.792;2023-03-05T16:10:20;2.50;99.90
2657;DHT22;1338;48.176;11.792;2023-03-05T16:12:52;2.50;99.90
2657;DHT22;1338;48.176;11.792;2023-03-05T16:15:23;2.40;99.90
2657;DHT22;1338;48.176;11.792;2023-03-05T16:17:53;2.50;99.90
2657;DHT22;1338;48.176;11.792;2023-03-05T16:20:21;2.40;99.90
2657;DHT22;1338;48.176;11.792;2023-03-05T16:22:50;2.40;99.90
2657;DHT22;1338;48.176;11.792;2023-03-05T16:25:18;2.40;99.90
2657;DHT22;1338;48.176;11.792;2023-03-05T16:27:47;2.40;99.90
2657;DHT22;1338;48.176;11.792;2023-03-05T16:30:16;2.40;99.90
2657;DHT22;1338;48.176;11.792;2023-03-05T16:32:46;2.40;99.90
2657;DHT22;1338;48.176;11.792;2023-03-05T16:35:14;2.60;99.90